createdAt,value
2022-10-06T00:00:49.100Z,15.19
2022-10-06T00:01:46.076Z,15.18
2022-10-06T00:02:46.082Z,15.17
2022-10-06T00:03:46.014Z,15.11
2022-10-06T00:04:45.999Z,15.10
2022-10-06T00:05:46.030Z,15.10
2022-10-06T00:06:45.950Z,15.10
2022-10-06T00:07:45.954Z,15.07
2022-10-06T00:08:45.940Z,15.09
2022-10-06T00:09:45.925Z,15.07
2022-10-06T00:10:45.904Z,15.06
2022-10-06T00:11:45.960Z,15.06
2022-10-06T00:12:45.892Z,15.04
2022-10-06T00:13:45.884Z,15.02
2022-10-06T00:14:45.849Z,15.00
2022-10-06T00:15:45.891Z,15.00
2022-10-06T00:16:45.835Z,15.00
2022-10-06T00:17:45.874Z,15.00
2022-10-06T00:18:45.814Z,15.00
2022-10-06T00:19:48.783Z,14.97
2022-10-06T00:20:48.786Z,14.99
2022-10-06T00:21:45.765Z,14.96
2022-10-06T00:22:45.744Z,14.94
2022-10-06T00:23:45.747Z,14.94
2022-10-06T00:24:45.708Z,14.94
2022-10-06T00:25:45.697Z,14.91
2022-10-06T00:26:45.687Z,14.89
2022-10-06T00:27:45.697Z,14.86
2022-10-06T00:28:45.805Z,14.85
2022-10-06T00:29:45.639Z,14.82
2022-10-06T00:30:45.660Z,14.81
2022-10-06T00:31:45.629Z,14.78
2022-10-06T00:32:45.598Z,14.78
2022-10-06T00:33:45.589Z,14.73
2022-10-06T00:34:45.609Z,14.70
2022-10-06T00:35:45.571Z,14.68
2022-10-06T00:36:45.540Z,14.65
2022-10-06T00:37:45.532Z,14.62
2022-10-06T00:38:45.545Z,14.58
2022-10-06T00:39:48.537Z,14.54
2022-10-06T00:40:48.511Z,14.54
2022-10-06T00:41:45.473Z,14.48
2022-10-06T00:42:45.452Z,14.47
2022-10-06T00:43:45.462Z,14.47
2022-10-06T00:44:45.464Z,14.44
2022-10-06T00:45:45.415Z,14.43
2022-10-06T00:46:45.545Z,14.41
2022-10-06T00:47:45.387Z,14.40
2022-10-06T00:48:45.375Z,14.36
2022-10-06T00:49:45.395Z,14.35
2022-10-06T00:50:45.345Z,14.33
2022-10-06T00:51:45.327Z,14.30
2022-10-06T00:52:45.323Z,14.28
2022-10-06T00:53:45.337Z,14.26
2022-10-06T00:54:45.296Z,14.23
2022-10-06T00:55:45.277Z,14.23
2022-10-06T00:56:45.268Z,14.18
2022-10-06T00:57:45.268Z,14.17
2022-10-06T00:58:45.229Z,14.14
2022-10-06T00:59:48.259Z,14.12
2022-10-06T01:00:48.225Z,14.12
2022-10-06T01:01:45.271Z,14.08
2022-10-06T01:02:45.293Z,14.05
2022-10-06T01:03:45.181Z,14.00
2022-10-06T01:04:45.183Z,14.00
2022-10-06T01:05:45.128Z,13.97
2022-10-06T01:06:45.127Z,13.95
2022-10-06T01:07:45.110Z,13.92
2022-10-06T01:08:45.102Z,13.93
2022-10-06T01:09:45.083Z,13.90
2022-10-06T01:10:45.104Z,13.90
2022-10-06T01:11:45.044Z,13.89
2022-10-06T01:12:45.042Z,13.89
2022-10-06T01:13:45.033Z,13.86
2022-10-06T01:14:45.014Z,13.83
2022-10-06T01:15:45.166Z,13.81
2022-10-06T01:16:44.985Z,13.78
2022-10-06T01:17:44.967Z,13.77
2022-10-06T01:18:44.969Z,13.79
2022-10-06T01:19:47.948Z,13.78
2022-10-06T01:20:48.010Z,13.79
2022-10-06T01:21:44.927Z,13.78
2022-10-06T01:22:44.917Z,13.78
2022-10-06T01:23:44.888Z,13.77
2022-10-06T01:24:44.876Z,13.74
2022-10-06T01:25:44.868Z,13.72
2022-10-06T01:26:44.908Z,13.70
2022-10-06T01:27:44.838Z,13.68
2022-10-06T01:28:44.850Z,13.68
2022-10-06T01:29:44.799Z,13.70
2022-10-06T01:30:44.850Z,13.70
2022-10-06T01:31:44.770Z,13.72
2022-10-06T01:32:44.781Z,13.74
2022-10-06T01:33:44.784Z,13.77
2022-10-06T01:34:44.742Z,13.77
2022-10-06T01:35:44.712Z,13.79
2022-10-06T01:36:44.766Z,13.79
2022-10-06T01:37:44.693Z,13.79
2022-10-06T01:38:44.683Z,13.83
2022-10-06T01:39:47.662Z,13.81
2022-10-06T01:40:47.671Z,13.85
2022-10-06T01:41:44.644Z,13.83
2022-10-06T01:42:44.652Z,13.86
2022-10-06T01:43:44.634Z,13.87
2022-10-06T01:44:44.605Z,13.86
2022-10-06T01:45:44.616Z,13.86
2022-10-06T01:46:44.612Z,13.86
2022-10-06T01:47:44.555Z,13.87
2022-10-06T01:48:44.575Z,13.90
2022-10-06T01:49:44.536Z,13.92
2022-10-06T01:50:44.528Z,13.93
2022-10-06T01:51:44.507Z,13.95
2022-10-06T01:52:44.487Z,13.96
2022-10-06T01:53:44.528Z,13.96
2022-10-06T01:54:44.457Z,13.95
2022-10-06T01:55:44.453Z,13.95
2022-10-06T01:56:44.435Z,13.92
2022-10-06T01:57:44.420Z,13.93
2022-10-06T01:58:44.410Z,13.93
2022-10-06T01:59:50.545Z,13.93
2022-10-06T02:00:48.395Z,13.93
2022-10-06T02:01:44.456Z,13.90
2022-10-06T02:02:44.350Z,13.92
2022-10-06T02:03:44.351Z,13.93
2022-10-06T02:04:44.361Z,13.93
2022-10-06T02:05:44.312Z,13.93
2022-10-06T02:06:44.376Z,13.92
2022-10-06T02:07:44.273Z,13.87
2022-10-06T02:08:44.272Z,13.86
2022-10-06T02:09:44.283Z,13.85
2022-10-06T02:10:44.240Z,13.81
2022-10-06T02:11:44.227Z,13.79
2022-10-06T02:12:44.225Z,13.77
2022-10-06T02:13:44.224Z,13.77
2022-10-06T02:14:44.216Z,13.75
2022-10-06T02:15:44.250Z,13.74
2022-10-06T02:16:44.164Z,13.72
2022-10-06T02:17:44.145Z,13.70
2022-10-06T02:18:44.127Z,13.70
2022-10-06T02:19:47.126Z,13.65
2022-10-06T02:20:47.138Z,13.67
2022-10-06T02:21:44.089Z,13.63
2022-10-06T02:22:44.068Z,13.59
2022-10-06T02:23:44.047Z,13.59
2022-10-06T02:24:44.060Z,13.54
2022-10-06T02:25:44.031Z,13.52
2022-10-06T02:26:44.038Z,13.49
2022-10-06T02:27:44.009Z,13.47
2022-10-06T02:28:44.041Z,13.47
2022-10-06T02:29:44.012Z,13.47
2022-10-06T02:30:43.972Z,13.44
2022-10-06T02:31:43.967Z,13.42
2022-10-06T02:32:43.921Z,13.39
2022-10-06T02:33:43.902Z,13.39
2022-10-06T02:34:43.899Z,13.38
2022-10-06T02:35:43.912Z,13.37
2022-10-06T02:36:43.892Z,13.37
2022-10-06T02:37:43.873Z,13.33
2022-10-06T02:38:43.853Z,13.30
2022-10-06T02:39:46.864Z,13.28
2022-10-06T02:40:46.874Z,13.31
2022-10-06T02:41:43.804Z,13.28
2022-10-06T02:42:43.803Z,13.27
2022-10-06T02:43:43.793Z,13.23
2022-10-06T02:44:43.803Z,13.25
2022-10-06T02:45:43.746Z,13.23
2022-10-06T02:46:43.785Z,13.22
2022-10-06T02:47:43.728Z,13.20
2022-10-06T02:48:43.706Z,13.20
2022-10-06T02:49:43.757Z,13.15
2022-10-06T02:50:43.691Z,13.18
2022-10-06T02:51:43.672Z,13.16
2022-10-06T02:52:43.668Z,13.13
2022-10-06T02:53:43.641Z,13.11
2022-10-06T02:54:43.639Z,13.11
2022-10-06T02:55:43.646Z,13.11
2022-10-06T02:56:43.610Z,13.11
2022-10-06T02:57:43.581Z,13.11
2022-10-06T02:58:43.560Z,13.11
2022-10-06T02:59:46.630Z,13.09
2022-10-06T03:00:46.563Z,13.11
2022-10-06T03:01:43.632Z,13.08
2022-10-06T03:02:43.628Z,13.08
2022-10-06T03:03:43.493Z,13.04
2022-10-06T03:04:43.482Z,13.05
2022-10-06T03:05:43.494Z,13.05
2022-10-06T03:06:43.462Z,13.05
2022-10-06T03:07:43.444Z,13.03
2022-10-06T03:08:43.425Z,13.03
2022-10-06T03:09:43.456Z,13.01
2022-10-06T03:10:43.429Z,12.98
2022-10-06T03:11:43.445Z,12.97
2022-10-06T03:12:43.375Z,12.94
2022-10-06T03:13:43.357Z,12.93
2022-10-06T03:14:43.393Z,12.91
2022-10-06T03:15:43.373Z,12.90
2022-10-06T03:16:43.347Z,12.90
2022-10-06T03:17:43.307Z,12.85
2022-10-06T03:18:43.308Z,12.83
2022-10-06T03:19:46.315Z,12.82
2022-10-06T03:20:46.375Z,12.83
2022-10-06T03:21:43.257Z,12.82
2022-10-06T03:22:43.240Z,12.80
2022-10-06T03:23:43.219Z,12.80
2022-10-06T03:24:43.234Z,12.78
2022-10-06T03:25:43.246Z,12.76
2022-10-06T03:26:43.187Z,12.75
2022-10-06T03:27:43.170Z,12.76
2022-10-06T03:28:43.207Z,12.76
2022-10-06T03:29:43.140Z,12.72
2022-10-06T03:30:43.161Z,12.70
2022-10-06T03:31:43.250Z,12.68
2022-10-06T03:32:43.110Z,12.65
2022-10-06T03:33:43.109Z,12.68
2022-10-06T03:34:43.075Z,12.70
2022-10-06T03:35:43.064Z,12.70
2022-10-06T03:36:43.061Z,12.68
2022-10-06T03:37:43.046Z,12.65
2022-10-06T03:38:43.034Z,12.64
2022-10-06T03:39:46.013Z,12.62
2022-10-06T03:40:46.041Z,12.64
2022-10-06T03:41:43.014Z,12.60
2022-10-06T03:42:42.997Z,12.60
2022-10-06T03:43:42.944Z,12.58
2022-10-06T03:44:42.943Z,12.57
2022-10-06T03:45:42.935Z,12.55
2022-10-06T03:46:42.981Z,12.54
2022-10-06T03:47:42.927Z,12.54
2022-10-06T03:48:42.877Z,12.50
2022-10-06T03:49:42.867Z,12.50
2022-10-06T03:50:42.858Z,12.49
2022-10-06T03:51:42.851Z,12.47
2022-10-06T03:52:42.888Z,12.46
2022-10-06T03:53:42.819Z,12.47
2022-10-06T03:54:42.802Z,12.45
2022-10-06T03:55:42.795Z,12.46
2022-10-06T03:56:42.770Z,12.43
2022-10-06T03:57:42.762Z,12.42
2022-10-06T03:58:42.772Z,12.40
2022-10-06T03:59:45.737Z,12.42
2022-10-06T04:00:45.762Z,12.45
2022-10-06T04:01:42.855Z,12.42
2022-10-06T04:02:42.873Z,12.40
2022-10-06T04:03:42.733Z,12.39
2022-10-06T04:04:42.673Z,12.37
2022-10-06T04:05:42.671Z,12.36
2022-10-06T04:06:42.713Z,12.35
2022-10-06T04:07:42.644Z,12.35
2022-10-06T04:08:50.495Z,12.32
2022-10-06T04:09:42.658Z,12.32
2022-10-06T04:10:42.595Z,12.29
2022-10-06T04:11:42.549Z,12.28
2022-10-06T04:12:42.550Z,12.25
2022-10-06T04:13:42.561Z,12.24
2022-10-06T04:14:42.521Z,12.22
2022-10-06T04:15:42.550Z,12.21
2022-10-06T04:16:42.590Z,12.22
2022-10-06T04:17:42.491Z,12.24
2022-10-06T04:18:42.481Z,12.24
2022-10-06T04:19:45.478Z,12.24
2022-10-06T04:20:45.459Z,12.25
2022-10-06T04:21:42.444Z,12.24
2022-10-06T04:22:42.442Z,12.24
2022-10-06T04:23:42.427Z,12.24
2022-10-06T04:24:42.443Z,12.25
2022-10-06T04:25:42.373Z,12.27
2022-10-06T04:26:42.364Z,12.25
2022-10-06T04:27:42.344Z,12.25
2022-10-06T04:28:42.392Z,12.25
2022-10-06T04:29:42.324Z,12.22
2022-10-06T04:30:42.342Z,12.22
2022-10-06T04:31:42.362Z,12.24
2022-10-06T04:32:42.285Z,12.22
2022-10-06T04:33:42.276Z,12.24
2022-10-06T04:34:42.248Z,12.21
2022-10-06T04:35:42.296Z,12.18
2022-10-06T04:36:42.232Z,12.18
2022-10-06T04:37:42.216Z,12.18
2022-10-06T04:38:42.210Z,12.18
2022-10-06T04:39:45.187Z,12.17
2022-10-06T04:40:45.233Z,12.17
2022-10-06T04:41:42.184Z,12.12
2022-10-06T04:42:42.152Z,12.10
2022-10-06T04:43:42.131Z,12.10
2022-10-06T04:44:42.147Z,12.10
2022-10-06T04:45:42.176Z,12.10
2022-10-06T04:46:44.125Z,12.07
2022-10-06T04:47:42.176Z,12.07
2022-10-06T04:48:42.201Z,12.06
2022-10-06T04:49:42.108Z,12.02
2022-10-06T04:50:42.201Z,12.02
2022-10-06T04:51:42.041Z,11.99
2022-10-06T04:52:42.091Z,11.97
2022-10-06T04:53:42.065Z,11.97
2022-10-06T04:54:42.022Z,11.97
2022-10-06T04:55:42.035Z,11.95
2022-10-06T04:56:41.986Z,12.00
2022-10-06T04:57:42.006Z,12.03
2022-10-06T04:58:42.034Z,12.04
2022-10-06T04:59:44.955Z,12.06
2022-10-06T05:00:45.002Z,12.06
2022-10-06T05:01:41.894Z,12.04
2022-10-06T05:02:41.984Z,12.03
2022-10-06T05:03:41.891Z,12.04
2022-10-06T05:04:41.898Z,12.03
2022-10-06T05:05:41.827Z,12.03
2022-10-06T05:06:41.854Z,12.02
2022-10-06T05:07:41.857Z,12.00
2022-10-06T05:08:41.828Z,11.97
2022-10-06T05:09:41.777Z,11.95
2022-10-06T05:10:41.847Z,11.94
2022-10-06T05:11:41.767Z,11.91
2022-10-06T05:12:41.758Z,11.90
2022-10-06T05:13:41.739Z,11.88
2022-10-06T05:14:41.780Z,11.87
2022-10-06T05:15:41.688Z,11.84
2022-10-06T05:16:41.727Z,11.84
2022-10-06T05:17:41.694Z,11.83
2022-10-06T05:18:41.641Z,11.80
2022-10-06T05:19:44.671Z,11.78
2022-10-06T05:20:44.680Z,11.80
2022-10-06T05:21:41.621Z,11.78
2022-10-06T05:22:41.592Z,11.73
2022-10-06T05:23:41.571Z,11.75
2022-10-06T05:24:41.573Z,11.75
2022-10-06T05:25:41.572Z,11.72
2022-10-06T05:26:41.622Z,11.72
2022-10-06T05:27:41.526Z,11.70
2022-10-06T05:28:41.608Z,11.70
2022-10-06T05:29:41.554Z,11.70
2022-10-06T05:30:41.496Z,11.72
2022-10-06T05:31:41.531Z,11.69
2022-10-06T05:32:41.465Z,11.68
2022-10-06T05:33:41.416Z,11.68
2022-10-06T05:34:41.414Z,11.66
2022-10-06T05:35:41.438Z,11.68
2022-10-06T05:36:41.574Z,11.66
2022-10-06T05:37:41.435Z,11.69
2022-10-06T05:38:41.384Z,11.66
2022-10-06T05:39:44.367Z,11.69
2022-10-06T05:40:44.357Z,11.69
2022-10-06T05:41:41.296Z,11.68
2022-10-06T05:42:41.346Z,11.68
2022-10-06T05:43:41.599Z,11.68
2022-10-06T05:44:41.287Z,11.65
2022-10-06T05:45:41.355Z,11.65
2022-10-06T05:46:41.264Z,11.66
2022-10-06T05:47:41.228Z,11.66
2022-10-06T05:48:41.211Z,11.65
2022-10-06T05:49:41.221Z,11.63
2022-10-06T05:50:41.213Z,11.63
2022-10-06T05:51:41.229Z,11.62
2022-10-06T05:52:41.160Z,11.63
2022-10-06T05:53:41.142Z,11.63
2022-10-06T05:54:41.200Z,11.65
2022-10-06T05:55:41.143Z,11.65
2022-10-06T05:56:41.144Z,11.65
2022-10-06T05:57:41.092Z,11.66
2022-10-06T05:58:41.070Z,11.66
2022-10-06T05:59:44.082Z,11.66
2022-10-06T06:00:44.038Z,11.68
2022-10-06T06:01:41.130Z,11.68
2022-10-06T06:02:41.059Z,11.68
2022-10-06T06:03:41.022Z,11.68
2022-10-06T06:04:41.009Z,11.68
2022-10-06T06:05:40.977Z,11.68
2022-10-06T06:06:40.986Z,11.68
2022-10-06T06:07:40.984Z,11.70
2022-10-06T06:08:40.990Z,11.73
2022-10-06T06:09:40.923Z,11.75
2022-10-06T06:10:40.897Z,11.80
2022-10-06T06:11:40.937Z,11.81
2022-10-06T06:12:40.876Z,11.81
2022-10-06T06:13:40.879Z,11.84
2022-10-06T06:14:40.839Z,11.84
2022-10-06T06:15:40.817Z,11.83
2022-10-06T06:16:40.883Z,11.86
2022-10-06T06:17:40.856Z,11.86
2022-10-06T06:18:40.788Z,11.87
2022-10-06T06:19:43.798Z,11.90
2022-10-06T06:20:43.759Z,11.94
2022-10-06T06:21:40.739Z,11.90
2022-10-06T06:22:40.731Z,11.94
2022-10-06T06:23:40.770Z,11.95
2022-10-06T06:24:40.698Z,11.95
2022-10-06T06:25:40.747Z,11.97
2022-10-06T06:26:40.677Z,11.95
2022-10-06T06:27:40.750Z,11.95
2022-10-06T06:28:40.710Z,11.97
2022-10-06T06:29:40.712Z,11.99
2022-10-06T06:30:40.712Z,12.00
2022-10-06T06:31:40.672Z,12.00
2022-10-06T06:32:40.585Z,12.03
2022-10-06T06:33:40.613Z,12.06
2022-10-06T06:34:40.653Z,12.07
2022-10-06T06:35:40.603Z,12.09
2022-10-06T06:36:40.954Z,12.09
2022-10-06T06:37:40.516Z,12.13
2022-10-06T06:38:40.518Z,12.15
2022-10-06T06:39:43.653Z,12.15
2022-10-06T06:40:43.517Z,12.20
2022-10-06T06:41:40.576Z,12.18
2022-10-06T06:42:40.653Z,12.20
2022-10-06T06:43:40.428Z,12.21
2022-10-06T06:44:40.408Z,12.22
2022-10-06T06:45:40.458Z,12.24
2022-10-06T06:46:40.366Z,12.21
2022-10-06T06:47:40.357Z,12.25
2022-10-06T06:48:40.353Z,12.28
2022-10-06T06:49:40.330Z,12.31
2022-10-06T06:50:40.370Z,12.35
2022-10-06T06:51:40.394Z,12.37
2022-10-06T06:52:40.299Z,12.37
2022-10-06T06:53:40.281Z,12.37
2022-10-06T06:54:40.291Z,12.37
2022-10-06T06:55:40.243Z,12.40
2022-10-06T06:56:40.280Z,12.42
2022-10-06T06:57:40.244Z,12.43
2022-10-06T06:58:40.369Z,12.45
2022-10-06T06:59:43.202Z,12.47
2022-10-06T07:00:43.194Z,12.50
2022-10-06T07:01:40.273Z,12.53
2022-10-06T07:02:40.222Z,12.55
2022-10-06T07:04:41.130Z,12.62
2022-10-06T07:05:40.124Z,12.64
2022-10-06T07:06:40.094Z,12.65
2022-10-06T07:07:40.102Z,12.68
2022-10-06T07:08:40.124Z,12.67
2022-10-06T07:09:40.081Z,12.67
2022-10-06T07:10:40.060Z,12.70
2022-10-06T07:11:40.043Z,12.72
2022-10-06T07:12:40.005Z,12.73
2022-10-06T07:13:40.007Z,12.76
2022-10-06T07:14:40.056Z,12.78
2022-10-06T07:15:40.038Z,12.80
2022-10-06T07:16:39.967Z,12.82
2022-10-06T07:17:39.981Z,12.83
2022-10-06T07:18:39.936Z,12.85
2022-10-06T07:19:42.987Z,12.86
2022-10-06T07:20:42.940Z,12.90
2022-10-06T07:21:39.898Z,12.90
2022-10-06T07:22:39.888Z,12.93
2022-10-06T07:23:39.890Z,12.94
2022-10-06T07:24:39.860Z,12.94
2022-10-06T07:25:39.970Z,12.98
2022-10-06T07:26:39.847Z,13.01
2022-10-06T07:27:39.831Z,13.01
2022-10-06T07:28:39.872Z,13.05
2022-10-06T07:29:39.817Z,13.08
2022-10-06T07:30:40.835Z,13.08
2022-10-06T07:31:39.881Z,13.11
2022-10-06T07:32:39.772Z,13.12
2022-10-06T07:33:39.739Z,13.13
2022-10-06T07:34:39.730Z,13.16
2022-10-06T07:35:39.703Z,13.16
2022-10-06T07:36:39.722Z,13.16
2022-10-06T07:37:39.764Z,13.18
2022-10-06T07:38:39.666Z,13.22
2022-10-06T07:39:42.666Z,13.25
2022-10-06T07:40:50.616Z,13.28
2022-10-06T07:41:40.647Z,13.30
2022-10-06T07:42:39.625Z,13.31
2022-10-06T07:43:39.656Z,13.33
2022-10-06T07:44:39.605Z,13.37
2022-10-06T07:45:39.779Z,13.39
2022-10-06T07:46:39.549Z,13.39
2022-10-06T07:47:39.568Z,13.38
2022-10-06T07:48:39.548Z,13.42
2022-10-06T07:49:39.578Z,13.46
2022-10-06T07:50:39.510Z,13.44
2022-10-06T07:51:39.507Z,13.47
2022-10-06T07:52:39.595Z,13.50
2022-10-06T07:53:39.467Z,13.53
2022-10-06T07:54:39.635Z,13.53
2022-10-06T07:55:39.428Z,13.56
2022-10-06T07:56:39.441Z,13.60
2022-10-06T07:57:39.419Z,13.63
2022-10-06T07:58:39.399Z,13.65
2022-10-06T07:59:42.420Z,13.67
2022-10-06T08:00:42.376Z,13.70
2022-10-06T08:01:39.428Z,13.68
2022-10-06T08:02:39.372Z,13.67
2022-10-06T08:03:39.331Z,13.70
2022-10-06T08:04:39.313Z,13.71
2022-10-06T08:05:39.342Z,13.74
2022-10-06T08:06:39.280Z,13.77
2022-10-06T08:07:39.273Z,13.79
2022-10-06T08:08:39.284Z,13.83
2022-10-06T08:09:39.252Z,13.86
2022-10-06T08:10:39.245Z,13.92
2022-10-06T08:11:39.244Z,13.95
2022-10-06T08:12:39.238Z,13.99
2022-10-06T08:13:39.166Z,13.96
2022-10-06T08:14:39.169Z,14.00
2022-10-06T08:15:39.195Z,14.03
2022-10-06T08:16:39.206Z,13.99
2022-10-06T08:17:39.117Z,13.99
2022-10-06T08:18:46.547Z,14.03
2022-10-06T08:19:43.088Z,14.04
2022-10-06T08:20:42.116Z,14.07
2022-10-06T08:21:39.074Z,14.08
2022-10-06T08:22:39.108Z,14.03
2022-10-06T08:23:39.037Z,14.04
2022-10-06T08:25:04.245Z,14.04
2022-10-06T08:25:40.018Z,14.08
2022-10-06T08:26:39.009Z,14.11
2022-10-06T08:27:38.996Z,14.15
2022-10-06T08:28:39.091Z,14.20
2022-10-06T08:29:39.052Z,14.25
2022-10-06T08:30:38.950Z,14.25
2022-10-06T08:31:39.147Z,14.29
2022-10-06T08:32:38.921Z,14.29
2022-10-06T08:33:38.891Z,14.29
2022-10-06T08:34:38.908Z,14.30
2022-10-06T08:35:38.938Z,14.33
2022-10-06T08:36:38.852Z,14.30
2022-10-06T08:37:38.862Z,14.35
2022-10-06T08:38:38.850Z,14.40
2022-10-06T08:39:41.832Z,14.48
2022-10-06T08:40:41.876Z,14.48
2022-10-06T08:41:38.803Z,14.48
2022-10-06T08:42:38.785Z,14.51
2022-10-06T08:43:38.776Z,14.55
2022-10-06T08:44:38.763Z,14.59
2022-10-06T08:45:39.077Z,14.62
2022-10-06T08:46:38.797Z,14.65
2022-10-06T08:47:38.706Z,14.66
2022-10-06T08:48:38.725Z,14.66
2022-10-06T08:49:38.675Z,14.72
2022-10-06T08:50:38.666Z,14.72
2022-10-06T08:51:38.678Z,14.77
2022-10-06T08:52:38.689Z,14.79
2022-10-06T08:53:38.653Z,14.85
2022-10-06T08:54:38.621Z,14.85
2022-10-06T08:55:38.617Z,14.84
2022-10-06T08:56:38.589Z,14.82
2022-10-06T08:57:38.580Z,14.84
2022-10-06T08:58:38.609Z,14.84
2022-10-06T08:59:41.549Z,14.85
2022-10-06T09:00:41.581Z,14.89
2022-10-06T09:01:38.628Z,14.88
2022-10-06T09:02:38.555Z,14.94
2022-10-06T09:03:38.520Z,14.94
2022-10-06T09:04:38.552Z,14.94
2022-10-06T09:05:38.472Z,14.96
2022-10-06T09:06:38.445Z,14.97
2022-10-06T09:07:38.422Z,14.92
2022-10-06T09:08:38.423Z,14.86
2022-10-06T09:09:38.403Z,14.91
2022-10-06T09:10:38.594Z,15.00
2022-10-06T09:11:38.383Z,15.03
2022-10-06T09:12:38.374Z,15.10
2022-10-06T09:13:38.354Z,15.11
2022-10-06T09:14:38.345Z,15.14
2022-10-06T09:15:38.373Z,15.18
2022-10-06T09:16:38.376Z,15.19
2022-10-06T09:17:38.286Z,15.22
2022-10-06T09:18:56.519Z,15.21
2022-10-06T09:19:42.277Z,15.24
2022-10-06T09:20:41.269Z,15.24
2022-10-06T09:21:38.250Z,15.22
2022-10-06T09:22:38.287Z,15.21
2022-10-06T09:23:38.217Z,15.17
2022-10-06T09:24:38.389Z,15.22
2022-10-06T09:25:38.209Z,15.25
2022-10-06T09:26:38.179Z,15.24
2022-10-06T09:27:38.161Z,15.19
2022-10-06T09:28:38.221Z,15.22
2022-10-06T09:29:38.121Z,15.29
2022-10-06T09:30:38.121Z,15.39
2022-10-06T09:31:38.271Z,15.51
2022-10-06T09:32:38.092Z,15.52
2022-10-06T09:33:38.111Z,15.54
2022-10-06T09:34:38.063Z,15.59
2022-10-06T09:35:38.045Z,15.62
2022-10-06T09:36:38.033Z,15.62
2022-10-06T09:37:38.031Z,15.70
2022-10-06T09:38:38.003Z,15.79
2022-10-06T09:39:41.024Z,15.84
2022-10-06T09:40:40.986Z,15.95
2022-10-06T09:41:37.957Z,15.98
2022-10-06T09:42:37.943Z,15.91
2022-10-06T09:43:37.995Z,15.83
2022-10-06T09:44:37.925Z,15.76
2022-10-06T09:45:37.904Z,15.75
2022-10-06T09:46:37.906Z,15.72
2022-10-06T09:47:37.963Z,15.73
2022-10-06T09:48:37.949Z,15.82
2022-10-06T09:49:37.896Z,15.75
2022-10-06T09:50:37.858Z,15.67
2022-10-06T09:51:37.818Z,15.59
2022-10-06T09:52:37.818Z,15.62
2022-10-06T09:53:37.862Z,15.72
2022-10-06T09:54:37.783Z,15.82
2022-10-06T09:55:37.771Z,15.92
2022-10-06T09:56:37.768Z,16.05
2022-10-06T09:57:37.751Z,16.12
2022-10-06T09:58:37.721Z,16.17
2022-10-06T09:59:40.741Z,16.31
2022-10-06T10:00:40.760Z,16.41
2022-10-06T10:01:37.690Z,16.49
2022-10-06T10:02:37.696Z,16.50
2022-10-06T10:03:37.670Z,16.57
2022-10-06T10:04:37.703Z,16.54
2022-10-06T10:05:37.625Z,16.60
2022-10-06T10:06:37.632Z,16.64
2022-10-06T10:07:37.595Z,16.65
2022-10-06T10:08:37.596Z,16.57
2022-10-06T10:09:37.583Z,16.56
2022-10-06T10:10:37.626Z,16.58
2022-10-06T10:11:37.564Z,16.68
2022-10-06T10:12:37.549Z,16.68
2022-10-06T10:13:37.596Z,16.61
2022-10-06T10:14:37.557Z,16.68
2022-10-06T10:15:37.490Z,16.61
2022-10-06T10:16:37.510Z,16.64
2022-10-06T10:17:37.465Z,16.66
2022-10-06T10:18:37.472Z,16.66
2022-10-06T10:19:40.501Z,16.71
2022-10-06T10:20:40.480Z,16.75
2022-10-06T10:21:37.412Z,16.68
2022-10-06T10:22:37.409Z,16.72
2022-10-06T10:23:37.381Z,16.78
2022-10-06T10:24:37.370Z,16.89
2022-10-06T10:25:37.412Z,16.96
2022-10-06T10:26:37.390Z,16.94
2022-10-06T10:27:37.339Z,16.87
2022-10-06T10:28:37.395Z,16.86
2022-10-06T10:29:37.331Z,16.69
2022-10-06T10:30:37.304Z,16.49
2022-10-06T10:31:37.355Z,16.32
2022-10-06T10:32:37.330Z,16.17
2022-10-06T10:33:37.257Z,16.02
2022-10-06T10:34:37.277Z,15.88
2022-10-06T10:35:37.225Z,15.84
2022-10-06T10:36:37.246Z,15.91
2022-10-06T10:37:37.196Z,16.00
2022-10-06T10:38:37.256Z,16.12
2022-10-06T10:39:40.155Z,16.21
2022-10-06T10:40:40.209Z,16.38
2022-10-06T10:41:37.144Z,16.41
2022-10-06T10:42:37.158Z,16.51
2022-10-06T10:43:37.107Z,16.66
2022-10-06T10:44:37.178Z,16.74
2022-10-06T10:45:37.088Z,16.79
2022-10-06T10:46:37.127Z,16.90
2022-10-06T10:47:37.089Z,16.97
2022-10-06T10:48:37.050Z,17.02
2022-10-06T10:49:37.071Z,17.01
2022-10-06T10:50:37.050Z,16.91
2022-10-06T10:51:37.022Z,16.84
2022-10-06T10:52:37.031Z,16.81
2022-10-06T10:53:40.249Z,16.71
2022-10-06T10:54:38.062Z,16.66
2022-10-06T10:55:36.993Z,16.66
2022-10-06T10:56:36.962Z,16.68
2022-10-06T10:57:36.985Z,16.72
2022-10-06T10:58:36.912Z,16.76
2022-10-06T10:59:40.006Z,16.83
2022-10-06T11:00:40.089Z,16.75
2022-10-06T11:01:36.982Z,16.65
2022-10-06T11:02:36.905Z,16.60
2022-10-06T11:03:36.902Z,16.49
2022-10-06T11:04:36.974Z,16.42
2022-10-06T11:05:36.919Z,16.32
2022-10-06T11:06:36.868Z,16.31
2022-10-06T11:07:36.827Z,16.28
2022-10-06T11:08:36.846Z,16.13
2022-10-06T11:09:36.797Z,16.17
2022-10-06T11:10:36.766Z,16.17
2022-10-06T11:11:36.795Z,16.16
2022-10-06T11:12:36.793Z,16.28
2022-10-06T11:13:36.718Z,16.41
2022-10-06T11:14:36.709Z,16.49
2022-10-06T11:15:36.740Z,16.54
2022-10-06T11:16:36.955Z,16.60
2022-10-06T11:17:36.671Z,16.74
2022-10-06T11:18:36.655Z,16.86
2022-10-06T11:19:39.632Z,16.97
2022-10-06T11:20:39.657Z,17.04
2022-10-06T11:21:36.631Z,17.16
2022-10-06T11:22:36.672Z,17.29
2022-10-06T11:23:36.612Z,17.41
2022-10-06T11:24:36.572Z,17.46
2022-10-06T11:25:36.575Z,17.44
2022-10-06T11:26:36.564Z,17.52
2022-10-06T11:27:36.554Z,17.67
2022-10-06T11:28:36.620Z,17.76
2022-10-06T11:29:36.527Z,17.90
2022-10-06T11:30:36.524Z,17.98
2022-10-06T11:31:36.542Z,18.10
2022-10-06T11:32:36.525Z,18.13
2022-10-06T11:33:36.460Z,18.19
2022-10-06T11:34:36.507Z,18.25
2022-10-06T11:35:36.418Z,18.22
2022-10-06T11:36:36.461Z,18.22
2022-10-06T11:37:36.404Z,18.26
2022-10-06T11:38:36.389Z,18.35
2022-10-06T11:39:39.428Z,18.26
2022-10-06T11:40:39.385Z,18.16
2022-10-06T11:41:36.337Z,18.01
2022-10-06T11:42:36.339Z,17.98
2022-10-06T11:43:36.347Z,17.95
2022-10-06T11:44:36.289Z,18.01
2022-10-06T11:45:36.331Z,18.11
2022-10-06T11:46:37.499Z,18.18
2022-10-06T11:47:36.538Z,18.19
2022-10-06T11:48:36.252Z,18.22
2022-10-06T11:49:36.230Z,18.26
2022-10-06T11:50:36.262Z,18.18
2022-10-06T11:51:36.203Z,18.16
2022-10-06T11:52:36.197Z,18.22
2022-10-06T11:53:36.172Z,18.19
2022-10-06T11:54:36.183Z,18.26
2022-10-06T11:55:36.134Z,18.31
2022-10-06T11:56:36.158Z,18.20
2022-10-06T11:57:36.115Z,18.23
2022-10-06T11:58:42.345Z,18.23
2022-10-06T11:59:40.076Z,18.23
2022-10-06T12:00:39.161Z,18.26
2022-10-06T12:01:36.158Z,18.28
2022-10-06T12:02:36.211Z,18.29
2022-10-06T12:03:36.038Z,18.28
2022-10-06T12:04:36.031Z,18.33
2022-10-06T12:06:37.060Z,18.33
2022-10-06T12:07:35.992Z,18.23
2022-10-06T12:08:35.969Z,18.22
2022-10-06T12:09:35.964Z,18.23
2022-10-06T12:10:35.949Z,18.26
2022-10-06T12:11:35.943Z,18.22
2022-10-06T12:12:35.974Z,18.19
2022-10-06T12:17:36.934Z,18.18
2022-10-06T12:18:35.825Z,18.11
2022-10-06T12:19:38.824Z,18.04
2022-10-06T12:20:38.833Z,18.11
2022-10-06T12:21:35.787Z,18.13
2022-10-06T12:22:35.805Z,18.04
2022-10-06T12:23:35.817Z,18.03
2022-10-06T12:24:35.748Z,18.08
2022-10-06T12:25:35.915Z,18.13
2022-10-06T12:26:35.728Z,18.18
2022-10-06T12:27:35.792Z,18.20
2022-10-06T12:28:35.714Z,18.05
2022-10-06T12:29:35.746Z,18.07
2022-10-06T12:30:35.702Z,18.04
2022-10-06T12:31:35.659Z,18.08
2022-10-06T12:32:35.651Z,18.07
2022-10-06T12:33:35.619Z,18.05
2022-10-06T12:34:35.601Z,18.13
2022-10-06T12:35:35.672Z,18.20
2022-10-06T12:36:35.571Z,18.16
2022-10-06T12:37:35.542Z,18.13
2022-10-06T12:38:35.563Z,18.10
2022-10-06T12:39:38.523Z,18.11
2022-10-06T12:40:38.595Z,18.15
2022-10-06T12:41:35.504Z,18.15
2022-10-06T12:42:35.514Z,18.18
2022-10-06T12:43:35.467Z,18.19
2022-10-06T12:44:35.463Z,18.22
2022-10-06T12:45:35.446Z,18.22
2022-10-06T12:46:35.552Z,18.23
2022-10-06T12:47:35.425Z,18.26
2022-10-06T12:48:35.415Z,18.26
2022-10-06T12:49:35.408Z,18.20
2022-10-06T12:50:35.489Z,18.13
2022-10-06T12:51:35.413Z,18.13
2022-10-06T12:52:35.422Z,18.04
2022-10-06T12:53:35.348Z,18.04
2022-10-06T12:54:35.312Z,17.89
2022-10-06T12:55:35.307Z,17.86
2022-10-06T12:56:36.030Z,17.87
2022-10-06T12:57:35.300Z,17.82
2022-10-06T12:58:35.310Z,17.76